• Join FlightAware (Why Join?)
  • Login
  • US Flag 
11:50AM EDT


 

Airport Tracker/Info


-or-


 

Live Flight TrackerFlight Track Log ✈ EJA929 ✈ 04-Oct-2013 ✈ KBWI - KHYA

Flight Track Log - Related Links

Times and Time Zones

All times are in EDT time to prevent confusion due to time zone crossing. See the EJA929 flight status page for this flight to view local times or setup timezone preferences in your user account.

Time Position Orientation Groundspeed Altitude Reporting Facility
EDT Latitude Longitude Course Direction KTS MPH feet Rate Location/Type
08:30PM 39.2000 -76.6667 270° West 166 191 900  Level Potomac TRACON
08:31PM 39.2000 -76.7500 270° West 250 288 3,900 2,820 Climbing Potomac TRACON
08:32PM 39.1333 -76.7500 180° South 303 349 6,700 1,440 Climbing Potomac TRACON
08:35PM 39.1331 -76.5014 90° East 296 341 9,100 1,620 Climbing Washington Center
08:36PM 39.1400 -76.3892 85° East 296 341 12,400 3,060 Climbing Washington Center
08:37PM 39.1469 -76.2767 85° East 307 353 15,300 2,580 Climbing Washington Center
08:38PM 39.1622 -76.1564 81° East 317 365 17,600 2,220 Climbing Washington Center
08:39PM 39.1772 -76.0308 81° East 336 387 19,800 2,160 Climbing Washington Center
08:40PM 39.1922 -75.9022 81° East 350 403 22,000 1,980 Climbing Washington Center
08:41PM 39.2550 -75.8006 51° Northeast 348 400 23,800 1,320 Climbing Washington Center
08:42PM 39.3364 -75.6936 45° Northeast 372 428 24,700 1,260 Climbing Washington Center
08:43PM 39.4239 -75.5836 44° Northeast 405 466 26,400 1,680 Climbing Washington Center
08:44PM 39.5092 -75.4706 46° Northeast 423 487 28,200 1,260 Climbing Washington Center
08:45PM 39.5967 -75.3544 46° Northeast 434 499 29,000 360 Climbing Washington Center
08:46PM 39.6881 -75.2328 46° Northeast 446 513 29,000  Level Washington Center
08:47PM 39.7511 -75.1422 48° Northeast 467 537 29,000  Level New York Center
08:48PM 39.8392 -75.0153 48° Northeast 480 552 29,000  Level New York Center
08:49PM 39.9358 -74.8778 47° Northeast 492 566 29,000  Level New York Center
08:50PM 40.0472 -74.7269 46° Northeast 510 587 29,000  Level New York Center
08:51PM 40.1478 -74.5833 47° Northeast 523 602 29,000  Level New York Center
08:52PM 40.1783 -74.4139 77° East 517 595 29,000  Level New York Center
08:54PM 40.2489 -74.0278 76° East 562 647 29,000  Level Boston Center
08:55PM 40.3306 -73.8419 60° Northeast 540 621 29,000  Level Boston Center
08:56PM 40.3844 -73.7014 63° Northeast 535 616 29,000  Level Boston Center
08:57PM 40.4614 -73.5011 63° Northeast 540 621 29,000  Level Boston Center
08:58PM 40.5275 -73.3247 64° Northeast 545 627 29,000  Level Boston Center
08:59PM 40.5975 -73.1481 62° Northeast 545 627 29,000  Level Boston Center
09:00PM 40.6672 -72.9708 63° Northeast 545 627 29,000  Level Boston Center
09:01PM 40.7347 -72.7906 64° Northeast 540 621 29,000 -420 Level Boston Center
09:02PM 40.7997 -72.6128 64° Northeast 535 616 28,200 -2,040 Descending Boston Center
09:03PM 40.8333 -72.4292 76° East 528 608 25,000 -3,300 Descending Boston Center
09:04PM 40.8664 -72.2481 76° East 514 592 21,700 -2,520 Descending Boston Center
09:05PM 40.8953 -72.0778 77° East 490 564 20,000 -900 Descending Boston Center
09:06PM 40.9319 -71.8961 75° East 474 545 20,000  Level Boston Center
09:07PM 40.9561 -71.7256 79° East 461 531 20,000  Level Boston Center
09:08PM 40.9797 -71.5658 79° East 478 550 20,000 -900 Level Boston Center
09:09PM 41.0097 -71.4003 76° East 481 554 18,300 -2,100 Descending Boston Center
09:10PM 41.0411 -71.2156 77° East 469 540 15,900 -2,340 Descending Boston Center
09:11PM 41.0731 -71.0772 73° East 445 512 13,700 -2,460 Descending Boston Center
09:12PM 41.1547 -70.9486 50° Northeast 414 476 11,000 -1,860 Descending Boston Center
09:13PM 41.2222 -70.8561 46° Northeast 363 418 10,000 -1,320 Descending Boston Center
09:14PM 41.2753 -70.7828 46° Northeast 311 358 8,500 -1,740 Descending Boston Center
09:15PM 41.3283 -70.7097 46° Northeast 279 321 6,600 -1,860 Descending Boston Center
09:16PM 41.3856 -70.6306 46° Northeast 273 314 4,800 -1,740 Descending Boston Center
09:17PM 41.4367 -70.5683 42° Northeast 273 314 3,200 -1,500 Descending Boston Center
09:18PM 41.5000 -70.4972 40° Northeast 267 307 1,900 -660 Descending Boston Center
09:19PM 41.5469 -70.4347 45° Northeast 256 295 1,900  Level Boston Center
09:20PM 41.5836 -70.3864 45° Northeast 219 252 1,900 -300 Level Boston Center
09:21PM 41.6206 -70.3572 31° Northeast 176 203 1,400 -660 Descending Boston Center
09:22PM 41.6428 -70.3206 51° Northeast 142 163 600 -660 Descending Boston Center
09:23PM 41.6650 -70.2864 49° Northeast 124 143 100 -300 Descending Boston Center
09:24PM 41.6914 -70.2550 42° Northeast 124 143 100  Level Boston Center